SAW - Marquette/Sawyer Rgnl

Pirep is a free, collaborative database of all public and private airports located within the United States. All pilots are welcome to contribute, edit, and improve any airport they have local knowledge about, no registration required.
Are you familiar with this airport? Help out other pilots by adding your local knowledge.
Uploaded photos will be licensed under a CC BY-SA 4.0 license. Please only upload photos you have the rights to use.
Tags
Public
Undocu­mented
METAR / TAF
Edit Tags
Food
Camping
Lodging
Car Rental
Bicycles
Swimming
Golfing
Fishing
Hot Springs
Museum
Flying Clubs
Airpark
Upcoming Events
No upcoming events. Is anything happening here soon?
*
*
*

Where exactly on/near the airport is this event taking place?

Is there a webpage with more information for this event?

Who should be contacted for more information?

What is this event all about?

Repeat every
Description
Transient Parking
Fuel Location
Landing & Tie-down Fees
Crew Car Availability
Flying Clubs
WiFi Access
Airport Statistics
Location: Marquette, MI
Elevation: 1,204ft
Sectional: Green Bay
Fuel: 100LL, A (prices)
Runway 01/19: 9,072ft
Access: Open to the public
Current Weather — VFR
  • Weather data is strictly informational and not for flight planning purposes.
  • METAR
    2024-05-24 19:45:00 EDT
    Ceiling Wind Temperature Dewpoint Weather Visbility
    11,000ft 140° @ 10kt 62°F 46°F Light rain 10SM
    Clouds: Few @ 3,100ft, Few @ 6,000ft, Broken @ 11,000ft
    Raw: KSAW 242345Z 14010KT 10SM -RA FEW031 FEW060 BKN110 17/08 A2969
  • TAF
    2024-05-24 20:00:00 EDT – 2024-05-24 21:00:00 EDT
    Ceiling Wind Weather Visbility
    8,000ft 140° @ 11kt Light rain showers 6SM
    Clouds: Scattered @ 6,000ft, Broken @ 8,000ft
    Raw: KSAW 242340Z 2500/2524 14011KT P6SM -SHRA SCT060 BKN080 FM250100 14011KT P6SM -SHRA VCTS SCT050 BKN070CB FM250400 14012KT 5SM -SHRA BR OVC022 FM250500 15012KT 5SM BR VCSH BKN005 FM250900 23008KT P6SM BKN014 FM251300 27011G19KT P6SM FEW130
  • TAF
    2024-05-24 21:00:00 EDT – 2024-05-25 00:00:00 EDT
    Ceiling Wind Weather Visbility
    7,000ft 140° @ 11kt Light rain showers, thunderstorm in vicinity 6SM
    Clouds: Scattered @ 5,000ft, Broken @ 7,000ft
    Raw: KSAW 242340Z 2500/2524 14011KT P6SM -SHRA SCT060 BKN080 FM250100 14011KT P6SM -SHRA VCTS SCT050 BKN070CB FM250400 14012KT 5SM -SHRA BR OVC022 FM250500 15012KT 5SM BR VCSH BKN005 FM250900 23008KT P6SM BKN014 FM251300 27011G19KT P6SM FEW130
  • TAF
    2024-05-25 00:00:00 EDT – 2024-05-25 01:00:00 EDT
    Ceiling Wind Weather Visbility
    2,200ft 140° @ 12kt Light rain showers, mist 5SM
    Clouds: Overcast @ 2,200ft
    Raw: KSAW 242340Z 2500/2524 14011KT P6SM -SHRA SCT060 BKN080 FM250100 14011KT P6SM -SHRA VCTS SCT050 BKN070CB FM250400 14012KT 5SM -SHRA BR OVC022 FM250500 15012KT 5SM BR VCSH BKN005 FM250900 23008KT P6SM BKN014 FM251300 27011G19KT P6SM FEW130
  • TAF
    2024-05-25 01:00:00 EDT – 2024-05-25 05:00:00 EDT
    Ceiling Wind Weather Visbility
    500ft 150° @ 12kt Mist, showers in vicinity 5SM
    Clouds: Broken @ 500ft
    Raw: KSAW 242340Z 2500/2524 14011KT P6SM -SHRA SCT060 BKN080 FM250100 14011KT P6SM -SHRA VCTS SCT050 BKN070CB FM250400 14012KT 5SM -SHRA BR OVC022 FM250500 15012KT 5SM BR VCSH BKN005 FM250900 23008KT P6SM BKN014 FM251300 27011G19KT P6SM FEW130
  • TAF
    2024-05-25 05:00:00 EDT – 2024-05-25 09:00:00 EDT
    Ceiling Wind Weather Visbility
    1,400ft 230° @ 8kt N/A 6SM
    Clouds: Broken @ 1,400ft
    Raw: KSAW 242340Z 2500/2524 14011KT P6SM -SHRA SCT060 BKN080 FM250100 14011KT P6SM -SHRA VCTS SCT050 BKN070CB FM250400 14012KT 5SM -SHRA BR OVC022 FM250500 15012KT 5SM BR VCSH BKN005 FM250900 23008KT P6SM BKN014 FM251300 27011G19KT P6SM FEW130
  • TAF
    2024-05-25 09:00:00 EDT – 2024-05-25 20:00:00 EDT
    Ceiling Wind Weather Visbility
    Sky clear 270° @ 11kt, gusts 19kt N/A 6SM
    Clouds: Few @ 13,000ft
    Raw: KSAW 242340Z 2500/2524 14011KT P6SM -SHRA SCT060 BKN080 FM250100 14011KT P6SM -SHRA VCTS SCT050 BKN070CB FM250400 14012KT 5SM -SHRA BR OVC022 FM250500 15012KT 5SM BR VCSH BKN005 FM250900 23008KT P6SM BKN014 FM251300 27011G19KT P6SM FEW130
Click/tap to add an annotation marker to the map
Airport Webcams
No webcams added yet.
Direct links to live image URLs will be displayed inline on this page. URLs to separate webpages will be linked to.
URL:
Direct links to live image URLs will be displayed inline on this page. URLs to separate webpages will be linked to.
URL:
Remarks
  • No objections
  • Acr ops are not auzd in excess of 15 mins bfr or aft sked arr/dep times wo prior coord with amgr. unsked acr opns with more than 30 psgr seats req 48 hr prior pmsn , call amgr 906-346-3308 or 906-364-0939. index c arff avbl with 48 hr prior pmsn, call amgr 906-346-3308 or 906-364-0939.
  • Birds & deer on & invof arpt.
  • Ga & charter acft parking avbl at ga terminal only, lctd se corner of arpt.
  • S half of acr terminal ramp not plowed oct-apr.
Comments
Leave a comment What was your experience like at this airport?